sensor_id;sensor_type;location;lat;lon;timestamp;P1;durP1;ratioP1;P2;durP2;ratioP2
83380;SDS011;73285;50.882;5.984;2023-12-20T00:00:59;48.87;;;16.57;;
83380;SDS011;73285;50.882;5.984;2023-12-20T00:03:24;44.93;;;15.97;;
83380;SDS011;73285;50.882;5.984;2023-12-20T00:05:50;39.30;;;15.07;;
83380;SDS011;73285;50.882;5.984;2023-12-20T00:08:15;40.47;;;14.93;;
83380;SDS011;73285;50.882;5.984;2023-12-20T00:10:41;40.67;;;15.48;;
83380;SDS011;73285;50.882;5.984;2023-12-20T00:13:06;45.50;;;15.63;;
83380;SDS011;73285;50.882;5.984;2023-12-20T00:15:32;38.08;;;14.90;;
83380;SDS011;73285;50.882;5.984;2023-12-20T00:17:58;40.23;;;16.20;;
83380;SDS011;73285;50.882;5.984;2023-12-20T00:20:24;35.70;;;13.95;;
83380;SDS011;73285;50.882;5.984;2023-12-20T00:22:49;33.27;;;14.00;;
83380;SDS011;73285;50.882;5.984;2023-12-20T00:25:14;30.80;;;12.07;;
83380;SDS011;73285;50.882;5.984;2023-12-20T00:27:40;35.83;;;13.40;;
83380;SDS011;73285;50.882;5.984;2023-12-20T00:30:06;40.58;;;13.23;;
83380;SDS011;73285;50.882;5.984;2023-12-20T00:32:32;31.10;;;12.68;;
83380;SDS011;73285;50.882;5.984;2023-12-20T00:34:57;34.27;;;13.13;;
83380;SDS011;73285;50.882;5.984;2023-12-20T00:37:23;24.43;;;11.10;;
83380;SDS011;73285;50.882;5.984;2023-12-20T00:39:49;26.40;;;11.10;;
83380;SDS011;73285;50.882;5.984;2023-12-20T00:42:14;26.47;;;11.93;;
83380;SDS011;73285;50.882;5.984;2023-12-20T00:44:39;30.50;;;12.47;;
83380;SDS011;73285;50.882;5.984;2023-12-20T00:47:05;23.70;;;10.33;;
83380;SDS011;73285;50.882;5.984;2023-12-20T00:49:30;20.88;;;8.85;;
83380;SDS011;73285;50.882;5.984;2023-12-20T00:51:56;18.43;;;5.93;;
83380;SDS011;73285;50.882;5.984;2023-12-20T00:54:21;9.30;;;2.90;;
83380;SDS011;73285;50.882;5.984;2023-12-20T00:56:46;13.93;;;3.10;;
83380;SDS011;73285;50.882;5.984;2023-12-20T00:59:12;18.17;;;2.67;;
83380;SDS011;73285;50.882;5.984;2023-12-20T01:01:37;13.30;;;1.77;;
83380;SDS011;73285;50.882;5.984;2023-12-20T01:04:03;12.53;;;1.67;;
83380;SDS011;73285;50.882;5.984;2023-12-20T01:06:29;10.73;;;1.80;;
83380;SDS011;73285;50.882;5.984;2023-12-20T01:08:54;10.73;;;2.10;;
83380;SDS011;73285;50.882;5.984;2023-12-20T01:11:19;10.33;;;1.73;;
83380;SDS011;73285;50.882;5.984;2023-12-20T01:13:45;9.30;;;1.60;;
83380;SDS011;73285;50.882;5.984;2023-12-20T01:16:11;14.07;;;2.13;;
83380;SDS011;73285;50.882;5.984;2023-12-20T01:18:37;7.60;;;1.90;;
83380;SDS011;73285;50.882;5.984;2023-12-20T01:21:03;14.55;;;2.25;;
83380;SDS011;73285;50.882;5.984;2023-12-20T01:23:29;20.13;;;1.97;;
83380;SDS011;73285;50.882;5.984;2023-12-20T01:25:54;9.33;;;1.80;;
83380;SDS011;73285;50.882;5.984;2023-12-20T01:28:20;14.73;;;2.97;;
83380;SDS011;73285;50.882;5.984;2023-12-20T01:30:45;9.68;;;2.63;;
83380;SDS011;73285;50.882;5.984;2023-12-20T01:33:11;8.60;;;3.10;;
83380;SDS011;73285;50.882;5.984;2023-12-20T01:35:36;11.13;;;2.43;;
83380;SDS011;73285;50.882;5.984;2023-12-20T01:38:02;11.13;;;3.05;;
83380;SDS011;73285;50.882;5.984;2023-12-20T01:40:28;12.83;;;2.97;;
83380;SDS011;73285;50.882;5.984;2023-12-20T01:43:00;10.77;;;2.17;;
83380;SDS011;73285;50.882;5.984;2023-12-20T01:45:32;15.60;;;3.00;;
83380;SDS011;73285;50.882;5.984;2023-12-20T01:47:57;15.07;;;3.30;;
83380;SDS011;73285;50.882;5.984;2023-12-20T01:50:24;17.00;;;3.50;;
83380;SDS011;73285;50.882;5.984;2023-12-20T01:52:49;12.40;;;2.33;;
83380;SDS011;73285;50.882;5.984;2023-12-20T01:55:17;14.37;;;2.33;;
83380;SDS011;73285;50.882;5.984;2023-12-20T01:57:43;14.48;;;2.80;;
83380;SDS011;73285;50.882;5.984;2023-12-20T02:00:10;15.00;;;2.40;;
83380;SDS011;73285;50.882;5.984;2023-12-20T02:02:37;11.18;;;2.00;;
83380;SDS011;73285;50.882;5.984;2023-12-20T02:05:05;13.20;;;1.95;;
83380;SDS011;73285;50.882;5.984;2023-12-20T02:07:31;18.60;;;3.43;;
83380;SDS011;73285;50.882;5.984;2023-12-20T02:09:56;10.52;;;2.40;;
83380;SDS011;73285;50.882;5.984;2023-12-20T02:12:22;12.63;;;2.40;;
83380;SDS011;73285;50.882;5.984;2023-12-20T02:14:48;9.07;;;1.67;;
83380;SDS011;73285;50.882;5.984;2023-12-20T02:17:13;17.05;;;2.38;;
83380;SDS011;73285;50.882;5.984;2023-12-20T02:19:39;15.63;;;1.87;;
83380;SDS011;73285;50.882;5.984;2023-12-20T02:22:06;11.40;;;2.67;;
83380;SDS011;73285;50.882;5.984;2023-12-20T02:24:35;13.07;;;1.60;;
83380;SDS011;73285;50.882;5.984;2023-12-20T02:27:00;10.60;;;1.52;;
83380;SDS011;73285;50.882;5.984;2023-12-20T02:29:26;16.57;;;2.07;;
83380;SDS011;73285;50.882;5.984;2023-12-20T02:31:52;10.57;;;1.55;;
83380;SDS011;73285;50.882;5.984;2023-12-20T02:34:17;11.53;;;2.07;;
83380;SDS011;73285;50.882;5.984;2023-12-20T02:36:42;8.23;;;1.70;;
83380;SDS011;73285;50.882;5.984;2023-12-20T02:39:08;11.67;;;2.17;;
83380;SDS011;73285;50.882;5.984;2023-12-20T02:41:33;12.60;;;2.72;;
83380;SDS011;73285;50.882;5.984;2023-12-20T02:43:59;11.00;;;2.20;;
83380;SDS011;73285;50.882;5.984;2023-12-20T02:46:26;14.55;;;2.13;;
83380;SDS011;73285;50.882;5.984;2023-12-20T02:48:52;11.47;;;2.33;;
83380;SDS011;73285;50.882;5.984;2023-12-20T02:51:17;16.30;;;2.30;;
83380;SDS011;73285;50.882;5.984;2023-12-20T02:53:43;17.43;;;2.23;;
83380;SDS011;73285;50.882;5.984;2023-12-20T02:56:08;12.77;;;2.40;;
83380;SDS011;73285;50.882;5.984;2023-12-20T02:58:34;10.30;;;2.67;;
83380;SDS011;73285;50.882;5.984;2023-12-20T03:00:59;10.20;;;2.20;;
83380;SDS011;73285;50.882;5.984;2023-12-20T03:03:24;12.53;;;2.67;;
83380;SDS011;73285;50.882;5.984;2023-12-20T03:05:50;10.32;;;2.65;;
83380;SDS011;73285;50.882;5.984;2023-12-20T03:08:15;10.37;;;2.57;;
83380;SDS011;73285;50.882;5.984;2023-12-20T03:10:41;10.07;;;3.07;;
83380;SDS011;73285;50.882;5.984;2023-12-20T03:13:06;16.27;;;3.07;;
83380;SDS011;73285;50.882;5.984;2023-12-20T03:15:32;19.65;;;3.78;;
83380;SDS011;73285;50.882;5.984;2023-12-20T03:17:57;12.40;;;2.23;;
83380;SDS011;73285;50.882;5.984;2023-12-20T03:20:24;15.40;;;2.88;;
83380;SDS011;73285;50.882;5.984;2023-12-20T03:22:51;14.05;;;2.65;;
83380;SDS011;73285;50.882;5.984;2023-12-20T03:25:16;13.10;;;2.70;;
83380;SDS011;73285;50.882;5.984;2023-12-20T03:27:42;19.17;;;3.13;;
83380;SDS011;73285;50.882;5.984;2023-12-20T03:30:07;13.73;;;3.10;;
83380;SDS011;73285;50.882;5.984;2023-12-20T03:32:33;21.83;;;2.85;;
83380;SDS011;73285;50.882;5.984;2023-12-20T03:34:58;12.07;;;3.30;;
83380;SDS011;73285;50.882;5.984;2023-12-20T03:37:24;14.50;;;2.67;;
83380;SDS011;73285;50.882;5.984;2023-12-20T03:39:49;17.57;;;2.80;;
83380;SDS011;73285;50.882;5.984;2023-12-20T03:42:15;12.20;;;2.87;;
83380;SDS011;73285;50.882;5.984;2023-12-20T03:44:40;13.03;;;2.90;;
83380;SDS011;73285;50.882;5.984;2023-12-20T03:47:06;17.48;;;3.83;;
83380;SDS011;73285;50.882;5.984;2023-12-20T03:49:32;16.97;;;2.63;;
83380;SDS011;73285;50.882;5.984;2023-12-20T03:51:57;12.23;;;2.80;;
83380;SDS011;73285;50.882;5.984;2023-12-20T03:54:24;11.20;;;3.03;;
83380;SDS011;73285;50.882;5.984;2023-12-20T03:56:50;16.33;;;2.90;;
83380;SDS011;73285;50.882;5.984;2023-12-20T03:59:15;17.90;;;3.37;;
83380;SDS011;73285;50.882;5.984;2023-12-20T04:01:44;11.30;;;2.63;;
83380;SDS011;73285;50.882;5.984;2023-12-20T04:04:12;17.63;;;3.33;;
83380;SDS011;73285;50.882;5.984;2023-12-20T04:06:38;14.43;;;2.25;;
83380;SDS011;73285;50.882;5.984;2023-12-20T04:09:03;13.63;;;2.60;;
83380;SDS011;73285;50.882;5.984;2023-12-20T04:11:29;18.13;;;2.50;;
83380;SDS011;73285;50.882;5.984;2023-12-20T04:13:54;12.00;;;2.23;;
83380;SDS011;73285;50.882;5.984;2023-12-20T04:16:19;14.95;;;3.42;;
83380;SDS011;73285;50.882;5.984;2023-12-20T04:18:45;11.53;;;2.27;;
83380;SDS011;73285;50.882;5.984;2023-12-20T04:21:10;17.97;;;2.80;;
83380;SDS011;73285;50.882;5.984;2023-12-20T04:23:36;20.97;;;2.90;;
83380;SDS011;73285;50.882;5.984;2023-12-20T04:26:01;13.37;;;2.50;;
83380;SDS011;73285;50.882;5.984;2023-12-20T04:28:26;17.75;;;2.53;;
83380;SDS011;73285;50.882;5.984;2023-12-20T04:30:55;17.63;;;2.40;;
83380;SDS011;73285;50.882;5.984;2023-12-20T04:33:20;12.07;;;2.00;;
83380;SDS011;73285;50.882;5.984;2023-12-20T04:35:46;19.27;;;2.00;;
83380;SDS011;73285;50.882;5.984;2023-12-20T04:38:11;12.77;;;3.43;;
83380;SDS011;73285;50.882;5.984;2023-12-20T04:40:37;15.43;;;3.28;;
83380;SDS011;73285;50.882;5.984;2023-12-20T04:43:02;18.57;;;2.77;;
83380;SDS011;73285;50.882;5.984;2023-12-20T04:45:28;15.43;;;1.93;;
83380;SDS011;73285;50.882;5.984;2023-12-20T04:47:54;14.93;;;2.28;;
83380;SDS011;73285;50.882;5.984;2023-12-20T04:50:20;12.63;;;2.30;;
83380;SDS011;73285;50.882;5.984;2023-12-20T04:52:46;16.75;;;2.00;;
83380;SDS011;73285;50.882;5.984;2023-12-20T04:55:12;18.58;;;2.92;;
83380;SDS011;73285;50.882;5.984;2023-12-20T04:57:37;18.97;;;2.60;;
83380;SDS011;73285;50.882;5.984;2023-12-20T05:00:02;16.57;;;2.50;;
83380;SDS011;73285;50.882;5.984;2023-12-20T05:02:29;25.85;;;2.63;;
83380;SDS011;73285;50.882;5.984;2023-12-20T05:04:55;14.83;;;2.53;;
83380;SDS011;73285;50.882;5.984;2023-12-20T05:07:20;12.53;;;2.23;;
83380;SDS011;73285;50.882;5.984;2023-12-20T05:09:45;15.33;;;2.40;;
83380;SDS011;73285;50.882;5.984;2023-12-20T05:12:11;16.43;;;2.53;;
83380;SDS011;73285;50.882;5.984;2023-12-20T05:14:36;12.03;;;1.97;;
83380;SDS011;73285;50.882;5.984;2023-12-20T05:17:02;15.63;;;2.47;;
83380;SDS011;73285;50.882;5.984;2023-12-20T05:19:28;10.43;;;2.20;;
83380;SDS011;73285;50.882;5.984;2023-12-20T05:21:53;11.93;;;2.20;;
83380;SDS011;73285;50.882;5.984;2023-12-20T05:24:19;18.73;;;2.70;;
83380;SDS011;73285;50.882;5.984;2023-12-20T05:26:44;20.23;;;1.90;;
83380;SDS011;73285;50.882;5.984;2023-12-20T05:29:09;20.40;;;2.43;;
83380;SDS011;73285;50.882;5.984;2023-12-20T05:31:35;14.47;;;3.20;;
83380;SDS011;73285;50.882;5.984;2023-12-20T05:34:00;13.43;;;2.93;;
83380;SDS011;73285;50.882;5.984;2023-12-20T05:36:26;13.23;;;2.73;;
83380;SDS011;73285;50.882;5.984;2023-12-20T05:38:51;14.70;;;3.20;;
83380;SDS011;73285;50.882;5.984;2023-12-20T05:41:17;16.53;;;2.90;;
83380;SDS011;73285;50.882;5.984;2023-12-20T05:43:42;12.33;;;2.57;;
83380;SDS011;73285;50.882;5.984;2023-12-20T05:46:09;15.88;;;2.90;;
83380;SDS011;73285;50.882;5.984;2023-12-20T05:48:37;14.50;;;3.38;;
83380;SDS011;73285;50.882;5.984;2023-12-20T05:51:02;11.23;;;2.83;;
83380;SDS011;73285;50.882;5.984;2023-12-20T05:53:29;21.27;;;3.23;;
83380;SDS011;73285;50.882;5.984;2023-12-20T05:55:55;16.75;;;3.13;;
83380;SDS011;73285;50.882;5.984;2023-12-20T05:58:20;17.90;;;3.50;;
83380;SDS011;73285;50.882;5.984;2023-12-20T06:00:46;16.25;;;3.40;;
83380;SDS011;73285;50.882;5.984;2023-12-20T06:03:14;21.80;;;3.47;;
83380;SDS011;73285;50.882;5.984;2023-12-20T06:05:40;12.70;;;3.13;;
83380;SDS011;73285;50.882;5.984;2023-12-20T06:08:06;15.53;;;3.87;;
83380;SDS011;73285;50.882;5.984;2023-12-20T06:10:31;14.52;;;3.10;;
83380;SDS011;73285;50.882;5.984;2023-12-20T06:12:57;13.73;;;3.03;;
83380;SDS011;73285;50.882;5.984;2023-12-20T06:15:23;17.15;;;3.50;;
83380;SDS011;73285;50.882;5.984;2023-12-20T06:17:49;14.60;;;3.33;;
83380;SDS011;73285;50.882;5.984;2023-12-20T06:20:15;22.30;;;2.90;;
83380;SDS011;73285;50.882;5.984;2023-12-20T06:22:40;14.45;;;3.72;;
83380;SDS011;73285;50.882;5.984;2023-12-20T06:25:06;14.60;;;2.87;;
83380;SDS011;73285;50.882;5.984;2023-12-20T06:27:32;14.23;;;2.45;;
83380;SDS011;73285;50.882;5.984;2023-12-20T06:29:57;15.20;;;3.00;;
83380;SDS011;73285;50.882;5.984;2023-12-20T06:32:24;13.85;;;3.08;;
83380;SDS011;73285;50.882;5.984;2023-12-20T06:34:49;24.23;;;3.17;;
83380;SDS011;73285;50.882;5.984;2023-12-20T06:37:15;9.50;;;2.45;;
83380;SDS011;73285;50.882;5.984;2023-12-20T06:39:40;12.10;;;2.60;;
83380;SDS011;73285;50.882;5.984;2023-12-20T06:42:06;12.83;;;2.83;;
83380;SDS011;73285;50.882;5.984;2023-12-20T06:44:32;17.42;;;3.30;;
83380;SDS011;73285;50.882;5.984;2023-12-20T06:46:57;16.97;;;2.87;;
83380;SDS011;73285;50.882;5.984;2023-12-20T06:49:23;13.00;;;3.07;;
83380;SDS011;73285;50.882;5.984;2023-12-20T06:51:49;11.80;;;2.80;;
83380;SDS011;73285;50.882;5.984;2023-12-20T06:54:14;13.73;;;3.13;;
83380;SDS011;73285;50.882;5.984;2023-12-20T06:56:39;12.60;;;3.50;;
83380;SDS011;73285;50.882;5.984;2023-12-20T06:59:06;13.50;;;2.73;;
83380;SDS011;73285;50.882;5.984;2023-12-20T07:01:31;16.17;;;3.90;;
83380;SDS011;73285;50.882;5.984;2023-12-20T07:03:57;17.03;;;3.33;;
83380;SDS011;73285;50.882;5.984;2023-12-20T07:06:22;15.87;;;3.80;;
83380;SDS011;73285;50.882;5.984;2023-12-20T07:08:47;21.00;;;4.50;;
83380;SDS011;73285;50.882;5.984;2023-12-20T07:11:13;12.88;;;3.00;;
83380;SDS011;73285;50.882;5.984;2023-12-20T07:13:39;11.63;;;2.90;;
83380;SDS011;73285;50.882;5.984;2023-12-20T07:16:04;13.50;;;3.10;;
83380;SDS011;73285;50.882;5.984;2023-12-20T07:18:30;11.60;;;3.25;;
83380;SDS011;73285;50.882;5.984;2023-12-20T07:20:55;14.67;;;3.33;;
83380;SDS011;73285;50.882;5.984;2023-12-20T07:23:20;13.23;;;3.27;;
83380;SDS011;73285;50.882;5.984;2023-12-20T07:25:46;13.50;;;3.65;;
83380;SDS011;73285;50.882;5.984;2023-12-20T07:28:12;12.23;;;3.33;;
83380;SDS011;73285;50.882;5.984;2023-12-20T07:30:37;16.10;;;3.43;;
83380;SDS011;73285;50.882;5.984;2023-12-20T07:33:03;15.33;;;4.17;;
83380;SDS011;73285;50.882;5.984;2023-12-20T07:35:28;15.40;;;3.60;;
83380;SDS011;73285;50.882;5.984;2023-12-20T07:37:53;14.47;;;4.00;;
83380;SDS011;73285;50.882;5.984;2023-12-20T07:40:19;15.87;;;3.97;;
83380;SDS011;73285;50.882;5.984;2023-12-20T07:42:44;20.17;;;4.23;;
83380;SDS011;73285;50.882;5.984;2023-12-20T07:45:10;16.83;;;4.03;;
83380;SDS011;73285;50.882;5.984;2023-12-20T07:47:38;12.57;;;4.20;;
83380;SDS011;73285;50.882;5.984;2023-12-20T07:50:05;16.25;;;3.97;;
83380;SDS011;73285;50.882;5.984;2023-12-20T07:52:30;14.88;;;3.38;;
83380;SDS011;73285;50.882;5.984;2023-12-20T07:54:56;13.10;;;3.37;;
83380;SDS011;73285;50.882;5.984;2023-12-20T07:57:21;15.90;;;3.17;;
83380;SDS011;73285;50.882;5.984;2023-12-20T07:59:47;13.02;;;4.25;;
83380;SDS011;73285;50.882;5.984;2023-12-20T08:02:12;15.73;;;3.60;;
83380;SDS011;73285;50.882;5.984;2023-12-20T08:04:38;15.03;;;4.00;;
83380;SDS011;73285;50.882;5.984;2023-12-20T08:07:03;11.10;;;2.70;;
83380;SDS011;73285;50.882;5.984;2023-12-20T08:09:29;19.05;;;4.63;;
83380;SDS011;73285;50.882;5.984;2023-12-20T08:11:54;15.73;;;3.20;;
83380;SDS011;73285;50.882;5.984;2023-12-20T08:14:21;13.73;;;3.67;;
83380;SDS011;73285;50.882;5.984;2023-12-20T08:16:48;22.00;;;3.33;;
83380;SDS011;73285;50.882;5.984;2023-12-20T08:19:14;12.70;;;2.90;;
83380;SDS011;73285;50.882;5.984;2023-12-20T08:21:39;17.37;;;3.10;;
83380;SDS011;73285;50.882;5.984;2023-12-20T08:24:05;16.57;;;2.93;;
83380;SDS011;73285;50.882;5.984;2023-12-20T08:26:31;15.55;;;3.58;;
83380;SDS011;73285;50.882;5.984;2023-12-20T08:28:56;15.30;;;3.23;;
83380;SDS011;73285;50.882;5.984;2023-12-20T08:31:22;12.90;;;3.50;;
83380;SDS011;73285;50.882;5.984;2023-12-20T08:33:48;10.10;;;2.80;;
83380;SDS011;73285;50.882;5.984;2023-12-20T08:36:13;11.93;;;2.67;;
83380;SDS011;73285;50.882;5.984;2023-12-20T08:38:39;11.80;;;2.58;;
83380;SDS011;73285;50.882;5.984;2023-12-20T08:41:05;13.50;;;2.97;;
83380;SDS011;73285;50.882;5.984;2023-12-20T08:43:31;10.48;;;2.63;;
83380;SDS011;73285;50.882;5.984;2023-12-20T08:45:57;13.47;;;2.57;;
83380;SDS011;73285;50.882;5.984;2023-12-20T08:48:23;14.52;;;2.72;;
83380;SDS011;73285;50.882;5.984;2023-12-20T08:50:48;17.93;;;3.63;;
83380;SDS011;73285;50.882;5.984;2023-12-20T08:53:15;14.98;;;2.90;;
83380;SDS011;73285;50.882;5.984;2023-12-20T08:55:42;11.52;;;2.80;;
83380;SDS011;73285;50.882;5.984;2023-12-20T08:58:07;16.77;;;3.67;;
83380;SDS011;73285;50.882;5.984;2023-12-20T09:00:33;16.37;;;3.17;;
83380;SDS011;73285;50.882;5.984;2023-12-20T09:02:59;17.75;;;3.42;;
83380;SDS011;73285;50.882;5.984;2023-12-20T09:05:24;19.33;;;3.10;;
83380;SDS011;73285;50.882;5.984;2023-12-20T09:07:50;12.17;;;2.83;;
83380;SDS011;73285;50.882;5.984;2023-12-20T09:10:17;14.30;;;3.10;;
83380;SDS011;73285;50.882;5.984;2023-12-20T09:12:47;14.55;;;3.38;;
83380;SDS011;73285;50.882;5.984;2023-12-20T09:15:15;17.92;;;2.63;;
83380;SDS011;73285;50.882;5.984;2023-12-20T09:17:41;13.57;;;3.77;;
83380;SDS011;73285;50.882;5.984;2023-12-20T09:20:06;14.47;;;3.80;;
83380;SDS011;73285;50.882;5.984;2023-12-20T09:22:33;16.48;;;3.50;;
83380;SDS011;73285;50.882;5.984;2023-12-20T09:24:59;9.63;;;2.72;;
83380;SDS011;73285;50.882;5.984;2023-12-20T09:27:25;12.27;;;2.90;;
83380;SDS011;73285;50.882;5.984;2023-12-20T09:29:50;11.20;;;3.53;;
83380;SDS011;73285;50.882;5.984;2023-12-20T09:32:16;19.70;;;3.57;;
83380;SDS011;73285;50.882;5.984;2023-12-20T09:34:41;18.97;;;3.13;;
83380;SDS011;73285;50.882;5.984;2023-12-20T09:37:07;16.80;;;3.10;;
83380;SDS011;73285;50.882;5.984;2023-12-20T09:39:32;14.23;;;3.00;;
83380;SDS011;73285;50.882;5.984;2023-12-20T09:42:03;13.93;;;2.10;;
83380;SDS011;73285;50.882;5.984;2023-12-20T09:44:29;11.48;;;2.88;;
83380;SDS011;73285;50.882;5.984;2023-12-20T09:46:56;8.20;;;2.27;;
83380;SDS011;73285;50.882;5.984;2023-12-20T09:49:22;9.02;;;2.10;;
83380;SDS011;73285;50.882;5.984;2023-12-20T09:51:48;13.13;;;2.63;;
83380;SDS011;73285;50.882;5.984;2023-12-20T09:54:16;7.80;;;2.08;;
83380;SDS011;73285;50.882;5.984;2023-12-20T09:56:42;11.98;;;2.00;;
83380;SDS011;73285;50.882;5.984;2023-12-20T09:59:07;13.87;;;2.53;;
83380;SDS011;73285;50.882;5.984;2023-12-20T10:01:33;12.17;;;2.20;;
83380;SDS011;73285;50.882;5.984;2023-12-20T10:03:59;10.80;;;2.05;;
83380;SDS011;73285;50.882;5.984;2023-12-20T10:06:25;13.07;;;2.53;;
83380;SDS011;73285;50.882;5.984;2023-12-20T10:08:51;9.33;;;1.77;;
83380;SDS011;73285;50.882;5.984;2023-12-20T10:11:17;11.10;;;2.47;;
83380;SDS011;73285;50.882;5.984;2023-12-20T10:13:44;10.38;;;2.20;;
83380;SDS011;73285;50.882;5.984;2023-12-20T10:16:12;10.17;;;1.80;;
83380;SDS011;73285;50.882;5.984;2023-12-20T10:18:38;14.10;;;2.67;;
83380;SDS011;73285;50.882;5.984;2023-12-20T10:21:04;8.67;;;1.73;;
83380;SDS011;73285;50.882;5.984;2023-12-20T10:23:29;12.35;;;2.05;;
83380;SDS011;73285;50.882;5.984;2023-12-20T10:25:56;12.73;;;2.33;;
83380;SDS011;73285;50.882;5.984;2023-12-20T10:28:23;8.77;;;1.63;;
83380;SDS011;73285;50.882;5.984;2023-12-20T10:30:52;10.15;;;2.15;;
83380;SDS011;73285;50.882;5.984;2023-12-20T10:33:25;11.15;;;2.00;;
83380;SDS011;73285;50.882;5.984;2023-12-20T10:35:52;11.32;;;1.88;;
83380;SDS011;73285;50.882;5.984;2023-12-20T10:38:17;14.37;;;2.37;;
83380;SDS011;73285;50.882;5.984;2023-12-20T10:40:43;11.40;;;1.75;;
83380;SDS011;73285;50.882;5.984;2023-12-20T10:43:10;12.05;;;2.30;;
83380;SDS011;73285;50.882;5.984;2023-12-20T10:45:36;11.03;;;2.40;;
83380;SDS011;73285;50.882;5.984;2023-12-20T10:48:01;10.13;;;2.30;;
83380;SDS011;73285;50.882;5.984;2023-12-20T10:50:27;8.30;;;2.03;;
83380;SDS011;73285;50.882;5.984;2023-12-20T10:52:54;8.93;;;1.92;;
83380;SDS011;73285;50.882;5.984;2023-12-20T10:55:23;11.68;;;2.15;;
83380;SDS011;73285;50.882;5.984;2023-12-20T10:57:54;15.25;;;2.33;;
83380;SDS011;73285;50.882;5.984;2023-12-20T11:00:25;7.50;;;1.63;;
83380;SDS011;73285;50.882;5.984;2023-12-20T11:02:51;13.35;;;2.05;;
83380;SDS011;73285;50.882;5.984;2023-12-20T11:05:25;7.20;;;2.00;;
83380;SDS011;73285;50.882;5.984;2023-12-20T11:10:30;10.95;;;2.08;;
83380;SDS011;73285;50.882;5.984;2023-12-20T11:13:06;13.95;;;2.38;;
83380;SDS011;73285;50.882;5.984;2023-12-20T11:15:41;10.63;;;2.40;;
83380;SDS011;73285;50.882;5.984;2023-12-20T11:18:08;13.00;;;2.55;;
83380;SDS011;73285;50.882;5.984;2023-12-20T11:20:40;10.60;;;2.30;;
83380;SDS011;73285;50.882;5.984;2023-12-20T11:23:07;11.18;;;2.00;;
83380;SDS011;73285;50.882;5.984;2023-12-20T11:25:46;9.40;;;2.53;;
83380;SDS011;73285;50.882;5.984;2023-12-20T11:28:13;8.23;;;1.53;;
83380;SDS011;73285;50.882;5.984;2023-12-20T11:30:42;19.20;;;2.37;;
83380;SDS011;73285;50.882;5.984;2023-12-20T11:33:08;9.03;;;1.90;;
83380;SDS011;73285;50.882;5.984;2023-12-20T11:35:34;9.73;;;3.00;;
83380;SDS011;73285;50.882;5.984;2023-12-20T11:38:01;11.70;;;2.13;;
83380;SDS011;73285;50.882;5.984;2023-12-20T11:40:27;13.57;;;2.67;;
83380;SDS011;73285;50.882;5.984;2023-12-20T11:42:52;9.07;;;2.20;;
83380;SDS011;73285;50.882;5.984;2023-12-20T11:45:23;10.63;;;3.25;;
83380;SDS011;73285;50.882;5.984;2023-12-20T11:47:49;12.27;;;2.78;;
83380;SDS011;73285;50.882;5.984;2023-12-20T11:50:19;11.40;;;2.67;;
83380;SDS011;73285;50.882;5.984;2023-12-20T11:52:45;13.07;;;2.23;;
83380;SDS011;73285;50.882;5.984;2023-12-20T11:55:10;17.20;;;2.03;;
83380;SDS011;73285;50.882;5.984;2023-12-20T11:57:36;10.33;;;2.60;;
83380;SDS011;73285;50.882;5.984;2023-12-20T12:00:02;19.08;;;2.20;;
83380;SDS011;73285;50.882;5.984;2023-12-20T12:02:28;15.95;;;2.67;;
83380;SDS011;73285;50.882;5.984;2023-12-20T12:04:54;9.07;;;2.10;;
83380;SDS011;73285;50.882;5.984;2023-12-20T12:07:24;14.65;;;2.65;;
83380;SDS011;73285;50.882;5.984;2023-12-20T12:09:49;15.13;;;2.67;;
83380;SDS011;73285;50.882;5.984;2023-12-20T12:12:15;8.20;;;1.63;;
83380;SDS011;73285;50.882;5.984;2023-12-20T12:14:41;10.13;;;2.05;;
83380;SDS011;73285;50.882;5.984;2023-12-20T12:17:10;15.17;;;2.70;;
83380;SDS011;73285;50.882;5.984;2023-12-20T12:19:37;12.38;;;2.17;;
83380;SDS011;73285;50.882;5.984;2023-12-20T12:24:41;12.65;;;1.73;;
83380;SDS011;73285;50.882;5.984;2023-12-20T12:27:07;19.53;;;2.87;;
83380;SDS011;73285;50.882;5.984;2023-12-20T12:29:34;16.27;;;2.20;;
83380;SDS011;73285;50.882;5.984;2023-12-20T12:31:59;10.50;;;2.08;;
83380;SDS011;73285;50.882;5.984;2023-12-20T12:34:28;18.93;;;3.07;;
83380;SDS011;73285;50.882;5.984;2023-12-20T12:36:54;11.43;;;2.35;;
83380;SDS011;73285;50.882;5.984;2023-12-20T12:39:19;15.00;;;3.10;;
83380;SDS011;73285;50.882;5.984;2023-12-20T12:41:45;11.77;;;2.03;;
83380;SDS011;73285;50.882;5.984;2023-12-20T12:44:10;12.87;;;2.50;;
83380;SDS011;73285;50.882;5.984;2023-12-20T12:46:35;12.60;;;2.30;;
83380;SDS011;73285;50.882;5.984;2023-12-20T12:49:01;15.50;;;2.13;;
83380;SDS011;73285;50.882;5.984;2023-12-20T12:51:26;16.75;;;3.03;;
83380;SDS011;73285;50.882;5.984;2023-12-20T12:53:52;14.30;;;2.73;;
83380;SDS011;73285;50.882;5.984;2023-12-20T12:56:18;16.05;;;2.50;;
83380;SDS011;73285;50.882;5.984;2023-12-20T12:58:43;12.47;;;2.70;;
83380;SDS011;73285;50.882;5.984;2023-12-20T13:01:09;12.77;;;2.13;;
83380;SDS011;73285;50.882;5.984;2023-12-20T13:03:35;13.70;;;3.30;;
83380;SDS011;73285;50.882;5.984;2023-12-20T13:06:01;16.02;;;2.80;;
83380;SDS011;73285;50.882;5.984;2023-12-20T13:08:26;17.63;;;3.80;;
83380;SDS011;73285;50.882;5.984;2023-12-20T13:10:52;14.93;;;3.10;;
83380;SDS011;73285;50.882;5.984;2023-12-20T13:13:17;11.00;;;2.47;;
83380;SDS011;73285;50.882;5.984;2023-12-20T13:15:43;13.00;;;2.95;;
83380;SDS011;73285;50.882;5.984;2023-12-20T13:18:15;17.63;;;3.10;;
83380;SDS011;73285;50.882;5.984;2023-12-20T13:20:41;11.70;;;2.90;;
83380;SDS011;73285;50.882;5.984;2023-12-20T13:23:06;13.17;;;3.00;;
83380;SDS011;73285;50.882;5.984;2023-12-20T13:25:32;12.13;;;3.07;;
83380;SDS011;73285;50.882;5.984;2023-12-20T13:27:58;9.70;;;3.00;;
83380;SDS011;73285;50.882;5.984;2023-12-20T13:30:24;17.67;;;3.47;;
83380;SDS011;73285;50.882;5.984;2023-12-20T13:32:49;9.43;;;2.67;;
83380;SDS011;73285;50.882;5.984;2023-12-20T13:35:15;20.60;;;3.83;;
83380;SDS011;73285;50.882;5.984;2023-12-20T13:37:40;13.83;;;3.07;;
83380;SDS011;73285;50.882;5.984;2023-12-20T13:40:06;7.60;;;2.27;;
83380;SDS011;73285;50.882;5.984;2023-12-20T13:42:32;20.15;;;3.03;;
83380;SDS011;73285;50.882;5.984;2023-12-20T13:44:57;9.97;;;2.97;;
83380;SDS011;73285;50.882;5.984;2023-12-20T13:47:23;8.97;;;2.67;;
83380;SDS011;73285;50.882;5.984;2023-12-20T13:49:48;12.63;;;2.87;;
83380;SDS011;73285;50.882;5.984;2023-12-20T13:52:14;11.30;;;2.73;;
83380;SDS011;73285;50.882;5.984;2023-12-20T13:54:39;10.93;;;2.63;;
83380;SDS011;73285;50.882;5.984;2023-12-20T13:57:04;22.13;;;3.50;;
83380;SDS011;73285;50.882;5.984;2023-12-20T13:59:30;9.40;;;2.63;;
83380;SDS011;73285;50.882;5.984;2023-12-20T14:01:55;15.17;;;3.07;;
83380;SDS011;73285;50.882;5.984;2023-12-20T14:04:22;17.75;;;3.05;;
83380;SDS011;73285;50.882;5.984;2023-12-20T14:06:47;14.33;;;2.87;;
83380;SDS011;73285;50.882;5.984;2023-12-20T14:09:13;13.73;;;2.60;;
83380;SDS011;73285;50.882;5.984;2023-12-20T14:11:39;13.77;;;2.83;;
83380;SDS011;73285;50.882;5.984;2023-12-20T14:14:06;15.52;;;3.20;;
83380;SDS011;73285;50.882;5.984;2023-12-20T14:16:32;12.95;;;3.33;;
83380;SDS011;73285;50.882;5.984;2023-12-20T14:18:58;16.15;;;3.28;;
83380;SDS011;73285;50.882;5.984;2023-12-20T14:21:24;14.03;;;3.30;;
83380;SDS011;73285;50.882;5.984;2023-12-20T14:23:49;20.93;;;3.67;;
83380;SDS011;73285;50.882;5.984;2023-12-20T14:26:16;8.77;;;2.60;;
83380;SDS011;73285;50.882;5.984;2023-12-20T14:28:42;12.93;;;2.83;;
83380;SDS011;73285;50.882;5.984;2023-12-20T14:31:07;16.23;;;3.22;;
83380;SDS011;73285;50.882;5.984;2023-12-20T14:33:36;13.43;;;2.80;;